sensor_id;sensor_type;location;lat;lon;timestamp;pressure;altitude;pressure_sealevel;temperature;humidity
21290;BME280;10804;48.988;2.408;2023-02-18T00:01:31;102135.06;;;13.40;66.45
21290;BME280;10804;48.988;2.408;2023-02-18T00:03:59;102124.59;;;13.40;66.44
21290;BME280;10804;48.988;2.408;2023-02-18T00:06:31;102130.72;;;13.41;66.69
21290;BME280;10804;48.988;2.408;2023-02-18T00:09:00;102128.97;;;13.40;66.78
21290;BME280;10804;48.988;2.408;2023-02-18T00:11:29;102127.22;;;13.40;66.62
21290;BME280;10804;48.988;2.408;2023-02-18T00:14:00;102128.97;;;13.40;66.81
21290;BME280;10804;48.988;2.408;2023-02-18T00:16:29;102123.75;;;13.40;66.43
21290;BME280;10804;48.988;2.408;2023-02-18T00:18:57;102123.75;;;13.38;66.53
21290;BME280;10804;48.988;2.408;2023-02-18T00:21:25;102126.38;;;13.38;66.61
21290;BME280;10804;48.988;2.408;2023-02-18T00:23:54;102121.13;;;13.38;66.41
21290;BME280;10804;48.988;2.408;2023-02-18T00:26:21;102121.13;;;13.38;66.58
21290;BME280;10804;48.988;2.408;2023-02-18T00:28:49;102127.25;;;13.37;66.71
21290;BME280;10804;48.988;2.408;2023-02-18T00:31:21;102122.88;;;13.38;66.59
21290;BME280;10804;48.988;2.408;2023-02-18T00:33:49;102128.16;;;13.36;66.69
21290;BME280;10804;48.988;2.408;2023-02-18T00:36:18;102125.50;;;13.38;66.63
21290;BME280;10804;48.988;2.408;2023-02-18T00:38:47;102126.38;;;13.37;66.77
21290;BME280;10804;48.988;2.408;2023-02-18T00:41:17;102123.75;;;13.37;66.76
21290;BME280;10804;48.988;2.408;2023-02-18T00:43:46;102122.94;;;13.35;66.58
21290;BME280;10804;48.988;2.408;2023-02-18T00:46:13;102128.16;;;13.36;66.37
21290;BME280;10804;48.988;2.408;2023-02-18T00:48:40;102134.25;;;13.37;66.71
21290;BME280;10804;48.988;2.408;2023-02-18T00:51:10;102122.94;;;13.33;66.80
21290;BME280;10804;48.988;2.408;2023-02-18T00:53:38;102127.28;;;13.34;66.60
21290;BME280;10804;48.988;2.408;2023-02-18T00:56:05;102115.06;;;13.35;66.88
21290;BME280;10804;48.988;2.408;2023-02-18T00:58:35;102119.44;;;13.34;66.55
21290;BME280;10804;48.988;2.408;2023-02-18T01:01:04;102116.81;;;13.34;66.44
21290;BME280;10804;48.988;2.408;2023-02-18T01:03:33;102113.34;;;13.34;66.83
21290;BME280;10804;48.988;2.408;2023-02-18T01:06:01;102110.72;;;13.34;66.63
21290;BME280;10804;48.988;2.408;2023-02-18T01:08:28;102106.38;;;13.33;66.72
21290;BME280;10804;48.988;2.408;2023-02-18T01:10:57;102098.53;;;13.30;66.63
21290;BME280;10804;48.988;2.408;2023-02-18T01:13:26;102105.50;;;13.32;66.72
21290;BME280;10804;48.988;2.408;2023-02-18T01:15:54;102103.75;;;13.31;66.57
21290;BME280;10804;48.988;2.408;2023-02-18T01:18:23;102101.13;;;13.33;66.42
21290;BME280;10804;48.988;2.408;2023-02-18T01:20:50;102088.94;;;13.30;66.62
21290;BME280;10804;48.988;2.408;2023-02-18T01:23:18;102102.88;;;13.31;66.64
21290;BME280;10804;48.988;2.408;2023-02-18T01:25:48;102102.88;;;13.31;66.74
21290;BME280;10804;48.988;2.408;2023-02-18T01:28:15;102098.53;;;13.31;66.89
21290;BME280;10804;48.988;2.408;2023-02-18T01:30:43;102098.53;;;13.30;66.66
21290;BME280;10804;48.988;2.408;2023-02-18T01:33:12;102101.16;;;13.31;66.59
21290;BME280;10804;48.988;2.408;2023-02-18T01:35:39;102092.44;;;13.29;66.56
21290;BME280;10804;48.988;2.408;2023-02-18T01:38:07;102082.00;;;13.26;66.50
21290;BME280;10804;48.988;2.408;2023-02-18T01:40:35;102081.97;;;13.29;66.72
21290;BME280;10804;48.988;2.408;2023-02-18T01:43:03;102081.09;;;13.29;66.64
21290;BME280;10804;48.988;2.408;2023-02-18T01:45:49;102076.75;;;13.28;66.65
21290;BME280;10804;48.988;2.408;2023-02-18T01:48:21;102067.13;;;13.28;66.43
21290;BME280;10804;48.988;2.408;2023-02-18T01:50:53;102072.38;;;13.28;66.48
21290;BME280;10804;48.988;2.408;2023-02-18T01:53:26;102072.41;;;13.27;66.75
21290;BME280;10804;48.988;2.408;2023-02-18T01:55:55;102075.88;;;13.27;66.70
21290;BME280;10804;48.988;2.408;2023-02-18T01:58:24;102082.88;;;13.28;66.69
21290;BME280;10804;48.988;2.408;2023-02-18T02:00:52;102074.13;;;13.26;66.46
21290;BME280;10804;48.988;2.408;2023-02-18T02:03:20;102066.34;;;13.23;66.82
21290;BME280;10804;48.988;2.408;2023-02-18T02:05:48;102067.16;;;13.25;66.48
21290;BME280;10804;48.988;2.408;2023-02-18T02:08:15;102068.91;;;13.26;66.47
21290;BME280;10804;48.988;2.408;2023-02-18T02:11:00;102069.78;;;13.25;66.50
21290;BME280;10804;48.988;2.408;2023-02-18T02:13:40;102067.16;;;13.25;66.54
21290;BME280;10804;48.988;2.408;2023-02-18T02:16:11;102071.56;;;13.25;66.70
21290;BME280;10804;48.988;2.408;2023-02-18T02:18:53;102063.69;;;13.25;66.43
21290;BME280;10804;48.988;2.408;2023-02-18T02:21:57;102058.47;;;13.23;66.45
21290;BME280;10804;48.988;2.408;2023-02-18T02:31:05;102045.38;;;13.23;66.53
21290;BME280;10804;48.988;2.408;2023-02-18T02:34:30;102045.38;;;13.23;66.77
21290;BME280;10804;48.988;2.408;2023-02-18T02:37:07;102041.03;;;13.22;66.51
21290;BME280;10804;48.988;2.408;2023-02-18T02:39:43;102040.16;;;13.22;66.67
21290;BME280;10804;48.988;2.408;2023-02-18T02:42:18;102034.91;;;13.22;66.74
21290;BME280;10804;48.988;2.408;2023-02-18T02:44:53;102033.19;;;13.21;66.62
21290;BME280;10804;48.988;2.408;2023-02-18T02:47:27;102033.19;;;13.21;66.68
21290;BME280;10804;48.988;2.408;2023-02-18T02:50:05;102027.06;;;13.20;66.85
21290;BME280;10804;48.988;2.408;2023-02-18T02:52:38;102020.09;;;13.19;66.59
21290;BME280;10804;48.988;2.408;2023-02-18T02:55:08;102018.38;;;13.18;66.92
21290;BME280;10804;48.988;2.408;2023-02-18T02:57:48;102020.09;;;13.19;66.73
21290;BME280;10804;48.988;2.408;2023-02-18T03:00:23;102026.22;;;13.20;66.45
21290;BME280;10804;48.988;2.408;2023-02-18T03:03:05;102027.97;;;13.19;66.80
21290;BME280;10804;48.988;2.408;2023-02-18T03:05:47;102026.22;;;13.18;66.75
21290;BME280;10804;48.988;2.408;2023-02-18T03:08:30;102021.00;;;13.18;66.85
21290;BME280;10804;48.988;2.408;2023-02-18T03:11:03;102016.66;;;13.17;66.67
21290;BME280;10804;48.988;2.408;2023-02-18T03:13:46;102023.63;;;13.18;66.91
21290;BME280;10804;48.988;2.408;2023-02-18T03:16:25;102019.28;;;13.17;66.66
21290;BME280;10804;48.988;2.408;2023-02-18T03:18:59;102012.31;;;13.15;66.71
21290;BME280;10804;48.988;2.408;2023-02-18T03:21:32;102009.66;;;13.18;66.48
21290;BME280;10804;48.988;2.408;2023-02-18T03:24:06;102008.81;;;13.16;66.49
21290;BME280;10804;48.988;2.408;2023-02-18T03:26:39;102013.19;;;13.17;66.54
21290;BME280;10804;48.988;2.408;2023-02-18T03:29:09;102004.44;;;13.16;66.89
21290;BME280;10804;48.988;2.408;2023-02-18T03:31:42;102002.72;;;13.15;66.69
21290;BME280;10804;48.988;2.408;2023-02-18T03:34:15;102002.72;;;13.15;66.46
21290;BME280;10804;48.988;2.408;2023-02-18T03:36:46;102000.09;;;13.15;66.56
21290;BME280;10804;48.988;2.408;2023-02-18T03:39:15;102005.34;;;13.15;66.66
21290;BME280;10804;48.988;2.408;2023-02-18T03:41:43;102009.75;;;13.13;66.61
21290;BME280;10804;48.988;2.408;2023-02-18T03:44:12;102006.22;;;13.14;66.85
21290;BME280;10804;48.988;2.408;2023-02-18T03:46:41;102003.63;;;13.13;66.63
21290;BME280;10804;48.988;2.408;2023-02-18T03:49:10;102009.75;;;13.13;66.50
21290;BME280;10804;48.988;2.408;2023-02-18T03:51:39;102014.97;;;13.13;66.70
21290;BME280;10804;48.988;2.408;2023-02-18T03:54:09;102007.97;;;13.12;66.66
21290;BME280;10804;48.988;2.408;2023-02-18T03:56:40;102006.31;;;13.10;66.49
21290;BME280;10804;48.988;2.408;2023-02-18T03:59:08;102006.25;;;13.11;66.71
21290;BME280;10804;48.988;2.408;2023-02-18T04:01:37;102011.50;;;13.11;66.50
21290;BME280;10804;48.988;2.408;2023-02-18T04:04:04;102008.03;;;13.09;66.61
21290;BME280;10804;48.988;2.408;2023-02-18T04:06:32;102013.28;;;13.11;66.47
21290;BME280;10804;48.988;2.408;2023-02-18T04:08:59;102009.78;;;13.10;66.83
21290;BME280;10804;48.988;2.408;2023-02-18T04:11:28;102012.38;;;13.10;66.66
21290;BME280;10804;48.988;2.408;2023-02-18T04:13:56;102009.78;;;13.10;66.89
21290;BME280;10804;48.988;2.408;2023-02-18T04:16:23;102008.03;;;13.09;66.52
21290;BME280;10804;48.988;2.408;2023-02-18T04:18:50;102010.69;;;13.08;66.75
21290;BME280;10804;48.988;2.408;2023-02-18T04:21:18;102010.69;;;13.08;66.88
21290;BME280;10804;48.988;2.408;2023-02-18T04:23:45;102011.56;;;13.08;66.75
21290;BME280;10804;48.988;2.408;2023-02-18T04:26:12;102009.78;;;13.09;66.56
21290;BME280;10804;48.988;2.408;2023-02-18T04:28:41;101998.47;;;13.08;66.63
21290;BME280;10804;48.988;2.408;2023-02-18T04:31:08;101996.75;;;13.07;66.66
21290;BME280;10804;48.988;2.408;2023-02-18T04:33:36;102003.72;;;13.07;66.58
21290;BME280;10804;48.988;2.408;2023-02-18T04:36:04;102000.25;;;13.06;66.57
21290;BME280;10804;48.988;2.408;2023-02-18T04:38:32;102002.00;;;13.04;66.73
21290;BME280;10804;48.988;2.408;2023-02-18T04:40:59;101999.34;;;13.07;66.74
21290;BME280;10804;48.988;2.408;2023-02-18T04:43:26;102004.59;;;13.06;66.82
21290;BME280;10804;48.988;2.408;2023-02-18T04:45:58;102006.38;;;13.05;66.78
21290;BME280;10804;48.988;2.408;2023-02-18T04:48:25;102011.63;;;13.05;66.82
21290;BME280;10804;48.988;2.408;2023-02-18T04:50:52;102015.09;;;13.04;66.57
21290;BME280;10804;48.988;2.408;2023-02-18T04:53:20;102009.84;;;13.04;66.69
21290;BME280;10804;48.988;2.408;2023-02-18T04:55:48;102003.78;;;13.04;66.51
21290;BME280;10804;48.988;2.408;2023-02-18T04:58:16;102009.84;;;13.04;66.83
21290;BME280;10804;48.988;2.408;2023-02-18T05:00:43;102002.91;;;13.03;66.48
21290;BME280;10804;48.988;2.408;2023-02-18T05:03:13;102001.16;;;13.02;66.58
21290;BME280;10804;48.988;2.408;2023-02-18T05:05:41;102014.25;;;13.02;66.71
21290;BME280;10804;48.988;2.408;2023-02-18T05:08:08;102021.28;;;13.02;66.59
21290;BME280;10804;48.988;2.408;2023-02-18T05:10:36;102011.66;;;13.02;66.89
21290;BME280;10804;48.988;2.408;2023-02-18T05:13:04;102009.03;;;13.01;66.72
21290;BME280;10804;48.988;2.408;2023-02-18T05:15:32;102016.91;;;13.01;66.87
21290;BME280;10804;48.988;2.408;2023-02-18T05:17:59;102011.66;;;13.01;66.89
21290;BME280;10804;48.988;2.408;2023-02-18T05:20:28;102023.91;;;13.00;66.76
21290;BME280;10804;48.988;2.408;2023-02-18T05:22:55;102017.78;;;13.00;66.84
21290;BME280;10804;48.988;2.408;2023-02-18T05:25:23;102009.97;;;12.98;66.79
21290;BME280;10804;48.988;2.408;2023-02-18T05:27:50;102011.72;;;12.98;66.59
21290;BME280;10804;48.988;2.408;2023-02-18T05:30:17;102011.72;;;12.96;66.67
21290;BME280;10804;48.988;2.408;2023-02-18T05:32:45;102003.88;;;12.96;66.67
21290;BME280;10804;48.988;2.408;2023-02-18T05:35:12;102012.59;;;12.97;66.50
21290;BME280;10804;48.988;2.408;2023-02-18T05:37:41;102001.25;;;12.96;66.63
21290;BME280;10804;48.988;2.408;2023-02-18T05:40:10;102002.16;;;12.95;66.90
21290;BME280;10804;48.988;2.408;2023-02-18T05:42:37;102003.03;;;12.96;66.87
21290;BME280;10804;48.988;2.408;2023-02-18T05:45:05;102004.78;;;12.95;66.90
21290;BME280;10804;48.988;2.408;2023-02-18T05:47:33;102008.28;;;12.94;66.59
21290;BME280;10804;48.988;2.408;2023-02-18T05:50:00;102001.28;;;12.93;66.68
21290;BME280;10804;48.988;2.408;2023-02-18T05:52:27;101999.53;;;12.94;66.64
21290;BME280;10804;48.988;2.408;2023-02-18T05:54:56;102003.03;;;12.93;66.79
21290;BME280;10804;48.988;2.408;2023-02-18T05:57:24;101996.03;;;12.93;67.01
21290;BME280;10804;48.988;2.408;2023-02-18T05:59:51;101999.56;;;12.92;66.80
21290;BME280;10804;48.988;2.408;2023-02-18T06:02:19;101996.94;;;12.92;66.83
21290;BME280;10804;48.988;2.408;2023-02-18T06:04:46;101991.72;;;12.91;66.71
21290;BME280;10804;48.988;2.408;2023-02-18T06:07:14;101994.34;;;12.91;66.54
21290;BME280;10804;48.988;2.408;2023-02-18T06:09:41;101997.84;;;12.90;66.96
21290;BME280;10804;48.988;2.408;2023-02-18T06:12:10;101989.97;;;12.90;67.08
21290;BME280;10804;48.988;2.408;2023-02-18T06:14:37;101994.34;;;12.89;66.67
21290;BME280;10804;48.988;2.408;2023-02-18T06:17:07;101992.63;;;12.88;66.98
21290;BME280;10804;48.988;2.408;2023-02-18T06:19:34;101991.78;;;12.88;66.97
21290;BME280;10804;48.988;2.408;2023-02-18T06:22:02;101990.03;;;12.87;66.58
21290;BME280;10804;48.988;2.408;2023-02-18T06:24:29;101985.66;;;12.86;67.03
21290;BME280;10804;48.988;2.408;2023-02-18T06:26:56;101994.41;;;12.86;66.98
21290;BME280;10804;48.988;2.408;2023-02-18T06:29:25;101990.91;;;12.86;66.84
21290;BME280;10804;48.988;2.408;2023-02-18T06:31:54;101981.31;;;12.85;66.81
21290;BME280;10804;48.988;2.408;2023-02-18T06:34:22;101982.25;;;12.82;66.77
21290;BME280;10804;48.988;2.408;2023-02-18T06:36:49;101990.06;;;12.84;66.82
21290;BME280;10804;48.988;2.408;2023-02-18T06:39:17;101987.44;;;12.84;66.86
21290;BME280;10804;48.988;2.408;2023-02-18T06:41:44;101984.88;;;12.82;66.68
21290;BME280;10804;48.988;2.408;2023-02-18T06:44:11;101980.50;;;12.81;66.92
21290;BME280;10804;48.988;2.408;2023-02-18T06:46:42;101990.97;;;12.81;66.87
21290;BME280;10804;48.988;2.408;2023-02-18T06:49:09;101989.22;;;12.82;66.94
21290;BME280;10804;48.988;2.408;2023-02-18T06:51:36;101990.97;;;12.81;66.94
21290;BME280;10804;48.988;2.408;2023-02-18T06:54:04;101997.97;;;12.81;66.79
21290;BME280;10804;48.988;2.408;2023-02-18T06:56:31;101991.03;;;12.80;66.99
21290;BME280;10804;48.988;2.408;2023-02-18T06:58:59;101984.00;;;12.80;66.92
21290;BME280;10804;48.988;2.408;2023-02-18T07:01:26;101983.16;;;12.80;66.90
21290;BME280;10804;48.988;2.408;2023-02-18T07:03:55;101977.06;;;12.79;66.72
21290;BME280;10804;48.988;2.408;2023-02-18T07:06:22;101980.56;;;12.78;66.95
21290;BME280;10804;48.988;2.408;2023-02-18T07:08:49;101982.28;;;12.78;67.06
21290;BME280;10804;48.988;2.408;2023-02-18T07:11:17;101979.69;;;12.78;67.10
21290;BME280;10804;48.988;2.408;2023-02-18T07:13:44;101982.28;;;12.78;66.95
21290;BME280;10804;48.988;2.408;2023-02-18T07:16:11;101978.84;;;12.77;66.72
21290;BME280;10804;48.988;2.408;2023-02-18T07:18:39;101977.09;;;12.76;67.08
21290;BME280;10804;48.988;2.408;2023-02-18T07:21:07;101977.09;;;12.76;66.85
21290;BME280;10804;48.988;2.408;2023-02-18T07:23:34;101978.00;;;12.74;66.70
21290;BME280;10804;48.988;2.408;2023-02-18T07:26:04;101982.34;;;12.76;66.75
21290;BME280;10804;48.988;2.408;2023-02-18T07:28:32;101979.72;;;12.76;66.79
21290;BME280;10804;48.988;2.408;2023-02-18T07:30:59;101980.63;;;12.75;67.13
21290;BME280;10804;48.988;2.408;2023-02-18T07:33:26;101983.25;;;12.75;67.00
21290;BME280;10804;48.988;2.408;2023-02-18T07:35:54;101984.09;;;12.74;67.03
21290;BME280;10804;48.988;2.408;2023-02-18T07:38:24;101991.09;;;12.75;67.06
21290;BME280;10804;48.988;2.408;2023-02-18T07:40:53;101993.72;;;12.74;66.92
21290;BME280;10804;48.988;2.408;2023-02-18T07:43:20;101995.44;;;12.75;66.94
21290;BME280;10804;48.988;2.408;2023-02-18T07:45:48;101990.22;;;12.73;66.83
21290;BME280;10804;48.988;2.408;2023-02-18T07:48:15;101994.56;;;12.74;66.96
21290;BME280;10804;48.988;2.408;2023-02-18T07:50:44;101991.94;;;12.74;67.09
21290;BME280;10804;48.988;2.408;2023-02-18T07:53:14;101989.34;;;12.74;67.02
21290;BME280;10804;48.988;2.408;2023-02-18T07:55:43;101992.84;;;12.73;66.83
21290;BME280;10804;48.988;2.408;2023-02-18T07:58:17;101999.81;;;12.74;66.72
21290;BME280;10804;48.988;2.408;2023-02-18T08:00:44;101998.94;;;12.74;66.85
21290;BME280;10804;48.988;2.408;2023-02-18T08:03:14;102003.31;;;12.73;66.78
21290;BME280;10804;48.988;2.408;2023-02-18T08:05:42;102005.03;;;12.74;67.09
21290;BME280;10804;48.988;2.408;2023-02-18T08:08:12;101998.06;;;12.73;67.13
21290;BME280;10804;48.988;2.408;2023-02-18T08:10:39;101996.34;;;12.72;66.75
21290;BME280;10804;48.988;2.408;2023-02-18T08:13:08;101998.06;;;12.73;66.82
21290;BME280;10804;48.988;2.408;2023-02-18T08:15:36;102005.94;;;12.73;66.74
21290;BME280;10804;48.988;2.408;2023-02-18T08:18:04;102009.44;;;12.74;66.94
21290;BME280;10804;48.988;2.408;2023-02-18T08:20:35;102008.53;;;12.73;66.83
21290;BME280;10804;48.988;2.408;2023-02-18T08:23:03;102007.66;;;12.74;66.94
21290;BME280;10804;48.988;2.408;2023-02-18T08:25:31;102008.53;;;12.73;67.05
21290;BME280;10804;48.988;2.408;2023-02-18T08:27:59;102015.50;;;12.74;66.89
21290;BME280;10804;48.988;2.408;2023-02-18T08:30:27;102014.66;;;12.74;66.88
21290;BME280;10804;48.988;2.408;2023-02-18T08:32:55;102012.94;;;12.73;66.79
21290;BME280;10804;48.988;2.408;2023-02-18T08:35:22;102032.97;;;12.75;66.72
21290;BME280;10804;48.988;2.408;2023-02-18T08:37:50;102026.84;;;12.75;66.81
21290;BME280;10804;48.988;2.408;2023-02-18T08:40:17;102028.59;;;12.74;66.78
21290;BME280;10804;48.988;2.408;2023-02-18T08:42:44;102019.88;;;12.75;66.83
21290;BME280;10804;48.988;2.408;2023-02-18T08:45:12;102022.50;;;12.75;66.66
21290;BME280;10804;48.988;2.408;2023-02-18T08:47:40;102027.75;;;12.75;67.02
21290;BME280;10804;48.988;2.408;2023-02-18T08:50:08;102029.47;;;12.76;66.83
21290;BME280;10804;48.988;2.408;2023-02-18T08:52:35;102027.75;;;12.75;66.91
21290;BME280;10804;48.988;2.408;2023-02-18T08:55:03;102033.81;;;12.76;66.88
21290;BME280;10804;48.988;2.408;2023-02-18T08:57:30;102024.25;;;12.73;66.79
21290;BME280;10804;48.988;2.408;2023-02-18T08:59:58;102021.59;;;12.76;66.74
21290;BME280;10804;48.988;2.408;2023-02-18T09:02:25;102022.47;;;12.77;66.99
21290;BME280;10804;48.988;2.408;2023-02-18T09:04:55;102025.06;;;12.77;66.85
21290;BME280;10804;48.988;2.408;2023-02-18T09:07:22;102027.69;;;12.78;66.77
21290;BME280;10804;48.988;2.408;2023-02-18T09:09:50;102022.44;;;12.78;66.55
21290;BME280;10804;48.988;2.408;2023-02-18T09:12:17;102030.31;;;12.78;66.90
21290;BME280;10804;48.988;2.408;2023-02-18T09:14:46;102029.41;;;12.79;66.56
21290;BME280;10804;48.988;2.408;2023-02-18T09:17:13;102026.78;;;12.79;66.74
21290;BME280;10804;48.988;2.408;2023-02-18T09:19:40;102037.25;;;12.79;66.52
21290;BME280;10804;48.988;2.408;2023-02-18T09:22:09;102027.63;;;12.81;66.67
21290;BME280;10804;48.988;2.408;2023-02-18T09:24:37;102030.25;;;12.81;66.58
21290;BME280;10804;48.988;2.408;2023-02-18T09:27:05;102033.75;;;12.82;66.70
21290;BME280;10804;48.988;2.408;2023-02-18T09:29:32;102038.09;;;12.83;66.68
21290;BME280;10804;48.988;2.408;2023-02-18T09:32:00;102030.28;;;12.80;66.89
21290;BME280;10804;48.988;2.408;2023-02-18T09:34:28;102040.72;;;12.83;66.81
21290;BME280;10804;48.988;2.408;2023-02-18T09:36:55;102038.06;;;12.84;66.37
21290;BME280;10804;48.988;2.408;2023-02-18T09:39:24;102037.19;;;12.85;66.51
21290;BME280;10804;48.988;2.408;2023-02-18T09:41:53;102041.53;;;12.86;66.67
21290;BME280;10804;48.988;2.408;2023-02-18T09:44:24;102052.88;;;12.87;66.77
21290;BME280;10804;48.988;2.408;2023-02-18T09:46:55;102043.25;;;12.87;66.80
21290;BME280;10804;48.988;2.408;2023-02-18T09:49:26;102043.25;;;12.87;66.62
21290;BME280;10804;48.988;2.408;2023-02-18T09:51:55;102044.97;;;12.88;66.65
21290;BME280;10804;48.988;2.408;2023-02-18T09:54:26;102038.84;;;12.89;66.76
21290;BME280;10804;48.988;2.408;2023-02-18T09:56:53;102040.63;;;12.87;66.49
21290;BME280;10804;48.988;2.408;2023-02-18T09:59:21;102042.34;;;12.91;66.62
21290;BME280;10804;48.988;2.408;2023-02-18T10:01:51;102043.22;;;12.90;66.69
21290;BME280;10804;48.988;2.408;2023-02-18T10:04:22;102053.66;;;12.92;66.53
21290;BME280;10804;48.988;2.408;2023-02-18T10:06:52;102042.31;;;12.93;66.74
21290;BME280;10804;48.988;2.408;2023-02-18T10:09:21;102040.63;;;12.90;66.42
21290;BME280;10804;48.988;2.408;2023-02-18T10:11:55;102040.56;;;12.93;66.34
21290;BME280;10804;48.988;2.408;2023-02-18T10:14:24;102041.44;;;12.94;66.44
21290;BME280;10804;48.988;2.408;2023-02-18T10:16:52;102046.66;;;12.95;66.35
21290;BME280;10804;48.988;2.408;2023-02-18T10:19:23;102054.53;;;12.95;66.55
21290;BME280;10804;48.988;2.408;2023-02-18T10:21:52;102053.63;;;12.96;66.38
21290;BME280;10804;48.988;2.408;2023-02-18T10:24:27;102045.78;;;12.96;66.54
21290;BME280;10804;48.988;2.408;2023-02-18T10:26:57;102059.75;;;12.97;66.49
21290;BME280;10804;48.988;2.408;2023-02-18T10:29:25;102050.19;;;12.94;66.69
21290;BME280;10804;48.988;2.408;2023-02-18T10:31:56;102060.59;;;12.97;66.68
21290;BME280;10804;48.988;2.408;2023-02-18T10:34:35;102063.19;;;12.99;66.48
21290;BME280;10804;48.988;2.408;2023-02-18T10:37:12;102062.31;;;13.00;66.71
21290;BME280;10804;48.988;2.408;2023-02-18T10:39:58;102064.09;;;12.99;66.71
21290;BME280;10804;48.988;2.408;2023-02-18T10:42:38;102064.94;;;13.00;66.62
21290;BME280;10804;48.988;2.408;2023-02-18T10:45:15;102059.69;;;13.00;66.63
21290;BME280;10804;48.988;2.408;2023-02-18T10:47:54;102064.03;;;13.01;66.71
21290;BME280;10804;48.988;2.408;2023-02-18T10:50:29;102059.69;;;13.01;66.44
21290;BME280;10804;48.988;2.408;2023-02-18T10:53:00;102064.03;;;13.02;66.60
21290;BME280;10804;48.988;2.408;2023-02-18T10:55:36;102058.78;;;13.02;66.65
21290;BME280;10804;48.988;2.408;2023-02-18T10:58:23;102062.28;;;13.03;66.51
21290;BME280;10804;48.988;2.408;2023-02-18T11:00:51;102067.47;;;13.04;66.73
21290;BME280;10804;48.988;2.408;2023-02-18T11:03:21;102061.41;;;13.04;66.85
21290;BME280;10804;48.988;2.408;2023-02-18T11:05:50;102062.25;;;13.04;66.50
21290;BME280;10804;48.988;2.408;2023-02-18T11:08:22;102061.38;;;13.05;66.47
21290;BME280;10804;48.988;2.408;2023-02-18T11:10:50;102058.75;;;13.05;66.43
21290;BME280;10804;48.988;2.408;2023-02-18T11:13:25;102066.63;;;13.05;66.39
21290;BME280;10804;48.988;2.408;2023-02-18T11:15:55;102061.34;;;13.07;66.34
21290;BME280;10804;48.988;2.408;2023-02-18T11:18:34;102070.97;;;13.06;66.75
21290;BME280;10804;48.988;2.408;2023-02-18T11:21:04;102062.22;;;13.07;66.55
21290;BME280;10804;48.988;2.408;2023-02-18T11:23:44;102069.19;;;13.08;66.66
21290;BME280;10804;48.988;2.408;2023-02-18T11:26:14;102060.50;;;13.06;66.77
21290;BME280;10804;48.988;2.408;2023-02-18T11:28:46;102063.06;;;13.09;66.61
21290;BME280;10804;48.988;2.408;2023-02-18T11:31:19;102061.31;;;13.10;66.32
21290;BME280;10804;48.988;2.408;2023-02-18T11:33:50;102056.09;;;13.07;66.40
21290;BME280;10804;48.988;2.408;2023-02-18T11:36:22;102056.91;;;13.10;66.76
21290;BME280;10804;48.988;2.408;2023-02-18T11:38:53;102056.03;;;13.11;66.61
21290;BME280;10804;48.988;2.408;2023-02-18T11:41:29;102057.81;;;13.11;66.43
21290;BME280;10804;48.988;2.408;2023-02-18T11:44:00;102049.91;;;13.12;66.36
21290;BME280;10804;48.988;2.408;2023-02-18T11:46:28;102056.91;;;13.13;66.33
21290;BME280;10804;48.988;2.408;2023-02-18T11:49:10;102046.44;;;13.10;66.53
21290;BME280;10804;48.988;2.408;2023-02-18T11:51:47;102056.84;;;13.15;66.37
21290;BME280;10804;48.988;2.408;2023-02-18T11:54:24;102057.72;;;13.15;66.34
21290;BME280;10804;48.988;2.408;2023-02-18T11:56:57;102050.72;;;13.16;66.43
21290;BME280;10804;48.988;2.408;2023-02-18T11:59:26;102049.88;;;13.14;66.49
21290;BME280;10804;48.988;2.408;2023-02-18T12:02:02;102041.09;;;13.18;66.63
21290;BME280;10804;48.988;2.408;2023-02-18T12:04:36;102039.34;;;13.18;66.59
21290;BME280;10804;48.988;2.408;2023-02-18T12:07:14;102034.97;;;13.19;66.42
21290;BME280;10804;48.988;2.408;2023-02-18T12:09:46;102035.81;;;13.19;66.46
21290;BME280;10804;48.988;2.408;2023-02-18T12:12:16;102018.38;;;13.20;66.54
21290;BME280;10804;48.988;2.408;2023-02-18T12:14:46;102039.31;;;13.21;66.43
21290;BME280;10804;48.988;2.408;2023-02-18T12:17:25;102030.56;;;13.22;66.29
21290;BME280;10804;48.988;2.408;2023-02-18T12:20:06;102027.03;;;13.23;66.23
21290;BME280;10804;48.988;2.408;2023-02-18T12:22:41;102001.69;;;13.24;66.47
21290;BME280;10804;48.988;2.408;2023-02-18T12:25:27;101992.97;;;13.25;66.60
21290;BME280;10804;48.988;2.408;2023-02-18T12:28:11;101999.94;;;13.26;66.26
21290;BME280;10804;48.988;2.408;2023-02-18T12:34:00;101993.81;;;13.25;66.56
21290;BME280;10804;48.988;2.408;2023-02-18T12:36:46;101995.50;;;13.29;66.42
21290;BME280;10804;48.988;2.408;2023-02-18T12:39:28;101984.16;;;13.29;66.34
21290;BME280;10804;48.988;2.408;2023-02-18T12:42:12;101987.59;;;13.31;66.54
21290;BME280;10804;48.988;2.408;2023-02-18T12:44:58;101979.72;;;13.32;66.65
21290;BME280;10804;48.988;2.408;2023-02-18T12:47:38;101970.97;;;13.33;66.42
21290;BME280;10804;48.988;2.408;2023-02-18T12:50:24;101977.94;;;13.34;66.16
21290;BME280;10804;48.988;2.408;2023-02-18T12:53:06;101983.97;;;13.38;66.45
21290;BME280;10804;48.988;2.408;2023-02-18T12:55:50;101974.41;;;13.37;66.33
21290;BME280;10804;48.988;2.408;2023-02-18T12:58:33;101977.84;;;13.40;66.40
21290;BME280;10804;48.988;2.408;2023-02-18T13:01:18;101974.31;;;13.41;66.61
21290;BME280;10804;48.988;2.408;2023-02-18T13:04:02;101977.78;;;13.43;66.41
21290;BME280;10804;48.988;2.408;2023-02-18T13:07:09;101974.28;;;13.44;66.59
21290;BME280;10804;48.988;2.408;2023-02-18T13:09:50;101966.38;;;13.46;66.25
21290;BME280;10804;48.988;2.408;2023-02-18T13:12:24;101960.28;;;13.45;66.24
21290;BME280;10804;48.988;2.408;2023-02-18T13:15:00;101964.56;;;13.49;66.25
21290;BME280;10804;48.988;2.408;2023-02-18T13:17:33;101957.56;;;13.51;66.26
21290;BME280;10804;48.988;2.408;2023-02-18T13:20:04;101957.50;;;13.54;66.18